createdAt,value
2022-12-17T00:01:08.902Z,86.63
2022-12-17T00:03:53.990Z,86.37
2022-12-17T00:06:41.841Z,85.88
2022-12-17T00:09:26.694Z,86.07
2022-12-17T00:12:11.375Z,85.81
2022-12-17T00:14:56.280Z,85.85
2022-12-17T00:17:41.154Z,86.59
2022-12-17T00:20:26.809Z,86.27
2022-12-17T00:23:19.170Z,86.47
2022-12-17T00:26:12.083Z,86.26
2022-12-17T00:28:57.611Z,86.04
2022-12-17T00:31:45.173Z,86.35
2022-12-17T00:34:30.391Z,86.44
2022-12-17T00:37:15.377Z,86.06
2022-12-17T00:40:00.273Z,86.23
2022-12-17T00:42:45.732Z,85.66
2022-12-17T00:45:30.505Z,85.98
2022-12-17T00:48:15.350Z,86.03
2022-12-17T00:51:00.136Z,85.99
2022-12-17T00:53:45.280Z,86.09
2022-12-17T00:56:30.188Z,86.21
2022-12-17T00:59:15.017Z,86.13
2022-12-17T01:01:59.960Z,86.16
2022-12-17T01:04:45.175Z,85.63
2022-12-17T01:07:30.401Z,86.09
2022-12-17T01:10:15.107Z,86.36
2022-12-17T01:13:00.183Z,86.48
2022-12-17T01:15:44.931Z,86.34
2022-12-17T01:18:36.301Z,87.32
2022-12-17T01:21:21.301Z,86.03
2022-12-17T01:24:06.047Z,86.13
2022-12-17T01:26:51.143Z,86.15
2022-12-17T01:29:36.896Z,86.25
2022-12-17T01:32:21.670Z,85.91
2022-12-17T01:35:06.767Z,86.20
2022-12-17T01:37:51.387Z,86.14
2022-12-17T01:40:36.333Z,86.00
2022-12-17T01:43:21.075Z,86.35
2022-12-17T01:46:07.949Z,86.39
2022-12-17T01:48:57.742Z,85.89
2022-12-17T01:51:43.232Z,86.04
2022-12-17T01:54:28.771Z,85.87
2022-12-17T01:57:17.452Z,85.83
2022-12-17T02:00:08.775Z,85.32
2022-12-17T02:03:10.325Z,85.79
2022-12-17T02:06:16.850Z,85.96
2022-12-17T02:09:14.266Z,85.60
2022-12-17T02:12:26.884Z,86.24
2022-12-17T02:15:55.822Z,85.49
2022-12-17T02:18:45.856Z,85.91
2022-12-17T02:21:31.022Z,86.23
2022-12-17T02:24:47.971Z,85.76
2022-12-17T02:27:33.930Z,85.39
2022-12-17T02:30:22.194Z,85.63
2022-12-17T02:33:08.507Z,85.20
2022-12-17T02:35:57.332Z,85.76
2022-12-17T02:38:47.530Z,86.15
2022-12-17T02:41:36.089Z,85.72
2022-12-17T02:44:21.735Z,86.12
2022-12-17T02:47:07.081Z,86.49
2022-12-17T02:49:52.185Z,86.19
2022-12-17T02:52:38.119Z,85.37
2022-12-17T02:55:24.292Z,85.72
2022-12-17T02:58:09.355Z,85.73
2022-12-17T03:00:54.573Z,85.92
2022-12-17T03:03:39.934Z,86.00
2022-12-17T03:06:25.212Z,85.90
2022-12-17T03:09:09.917Z,85.72
2022-12-17T03:11:54.674Z,85.57
2022-12-17T03:14:39.567Z,85.28
2022-12-17T03:17:24.335Z,84.98
2022-12-17T03:20:09.161Z,86.00
2022-12-17T03:22:54.408Z,85.63
2022-12-17T03:25:39.135Z,86.38
2022-12-17T03:28:26.003Z,85.82
2022-12-17T03:31:10.959Z,85.67
2022-12-17T03:33:55.946Z,85.31
2022-12-17T03:36:41.329Z,85.63
2022-12-17T03:39:26.130Z,85.52
2022-12-17T03:42:11.044Z,85.91
2022-12-17T03:44:55.727Z,85.87
2022-12-17T03:47:40.738Z,86.15
2022-12-17T03:50:26.042Z,85.78
2022-12-17T03:53:10.934Z,86.02
2022-12-17T03:55:55.635Z,85.42
2022-12-17T03:58:40.742Z,85.72
2022-12-17T04:01:26.311Z,86.25
2022-12-17T04:04:11.362Z,86.16
2022-12-17T04:06:56.344Z,85.38
2022-12-17T04:09:41.253Z,85.68
2022-12-17T04:12:26.089Z,85.58
2022-12-17T04:15:10.744Z,86.04
2022-12-17T04:17:55.482Z,85.53
2022-12-17T04:20:40.427Z,85.15
2022-12-17T04:23:25.495Z,85.78
2022-12-17T04:26:14.724Z,85.41
2022-12-17T04:28:59.786Z,85.60
2022-12-17T04:31:44.882Z,85.78
2022-12-17T04:34:29.698Z,85.40
2022-12-17T04:37:14.521Z,85.45
2022-12-17T04:39:59.411Z,85.44
2022-12-17T04:43:04.065Z,85.23
2022-12-17T04:45:49.066Z,86.09
2022-12-17T04:48:34.109Z,85.30
2022-12-17T04:51:19.448Z,85.90
2022-12-17T04:54:04.382Z,85.77
2022-12-17T04:56:49.108Z,85.63
2022-12-17T04:59:33.925Z,85.41
2022-12-17T05:02:19.074Z,85.36
2022-12-17T05:05:04.289Z,85.49
2022-12-17T05:07:49.156Z,85.40
2022-12-17T05:10:34.414Z,85.39
2022-12-17T05:13:20.545Z,85.58
2022-12-17T05:16:05.519Z,85.35
2022-12-17T05:18:50.867Z,85.45
2022-12-17T05:21:35.723Z,85.03
2022-12-17T05:24:20.881Z,85.38
2022-12-17T05:27:06.171Z,85.78
2022-12-17T05:30:07.702Z,85.63
2022-12-17T05:32:52.450Z,85.93
2022-12-17T05:35:37.507Z,85.54
2022-12-17T05:38:26.851Z,85.78
2022-12-17T05:41:15.585Z,85.85
2022-12-17T05:44:00.558Z,85.36
2022-12-17T05:46:46.105Z,85.19
2022-12-17T05:49:31.188Z,85.08
2022-12-17T05:52:16.482Z,84.87
2022-12-17T05:55:01.524Z,84.53
2022-12-17T05:57:48.513Z,85.05
2022-12-17T06:00:37.238Z,85.83
2022-12-17T06:03:23.795Z,85.83
2022-12-17T06:06:13.110Z,85.38
2022-12-17T06:08:58.366Z,85.20
2022-12-17T06:11:43.203Z,85.05
2022-12-17T06:14:27.987Z,84.99
2022-12-17T06:17:13.553Z,85.36
2022-12-17T06:19:58.823Z,85.32
2022-12-17T06:22:43.583Z,85.58
2022-12-17T06:25:28.495Z,85.15
2022-12-17T06:28:18.575Z,85.39
2022-12-17T06:31:09.691Z,85.49
2022-12-17T06:33:55.418Z,85.57
2022-12-17T06:36:40.510Z,85.45
2022-12-17T06:39:25.155Z,85.46
2022-12-17T06:42:09.873Z,85.21
2022-12-17T06:44:55.173Z,84.94
2022-12-17T06:47:40.196Z,84.84
2022-12-17T06:50:25.250Z,84.99
2022-12-17T06:53:19.118Z,84.73
2022-12-17T06:56:04.104Z,84.84
2022-12-17T06:58:49.184Z,85.12
2022-12-17T07:01:33.764Z,85.45
2022-12-17T07:04:19.259Z,85.30
2022-12-17T07:07:04.100Z,84.88
2022-12-17T07:09:48.865Z,85.48
2022-12-17T07:12:33.720Z,85.45
2022-12-17T07:15:18.575Z,85.67
2022-12-17T07:18:16.269Z,85.54
2022-12-17T07:21:01.379Z,84.91
2022-12-17T07:23:46.791Z,85.53
2022-12-17T07:26:31.663Z,86.02
2022-12-17T07:29:16.749Z,85.26
2022-12-17T07:32:01.544Z,84.97
2022-12-17T07:34:46.385Z,84.77
2022-12-17T07:37:31.349Z,85.06
2022-12-17T07:40:16.090Z,85.06
2022-12-17T07:43:00.831Z,85.31
2022-12-17T07:45:45.892Z,84.92
2022-12-17T07:48:30.971Z,84.80
2022-12-17T07:51:16.209Z,84.96
2022-12-17T07:54:01.001Z,85.51
2022-12-17T07:56:46.158Z,85.64
2022-12-17T07:59:30.927Z,85.78
2022-12-17T08:02:15.849Z,85.74
2022-12-17T08:05:01.042Z,85.23
2022-12-17T08:07:45.878Z,85.84
2022-12-17T08:10:30.874Z,85.57
2022-12-17T08:13:21.139Z,86.03
2022-12-17T08:16:06.848Z,86.00
2022-12-17T08:18:51.838Z,86.00
2022-12-17T08:21:37.586Z,85.87
2022-12-17T08:24:23.096Z,86.35
2022-12-17T08:27:08.302Z,86.95
2022-12-17T08:29:53.351Z,87.81
2022-12-17T08:32:38.170Z,87.61
2022-12-17T08:35:23.538Z,87.30
2022-12-17T08:38:08.514Z,87.01
2022-12-17T08:40:53.794Z,87.37
2022-12-17T08:43:39.183Z,87.08
2022-12-17T08:46:24.680Z,87.72
2022-12-17T08:49:09.422Z,87.77
2022-12-17T08:51:54.182Z,87.65
2022-12-17T08:54:38.967Z,88.01
2022-12-17T08:57:31.459Z,87.54
2022-12-17T09:00:17.528Z,87.97
2022-12-17T09:03:13.576Z,87.64
2022-12-17T09:05:59.032Z,88.67
2022-12-17T09:08:44.124Z,88.43
2022-12-17T09:11:28.910Z,88.61
2022-12-17T09:14:14.031Z,88.04
2022-12-17T09:16:59.231Z,88.96
2022-12-17T09:19:44.288Z,89.62
2022-12-17T09:22:29.355Z,90.23
2022-12-17T09:25:14.338Z,90.90
2022-12-17T09:27:59.535Z,90.39
2022-12-17T09:30:44.354Z,90.63
2022-12-17T09:33:37.377Z,90.86
2022-12-17T09:36:23.522Z,90.27
2022-12-17T09:39:08.647Z,90.61
2022-12-17T09:42:23.030Z,90.03
2022-12-17T09:45:39.274Z,89.34
2022-12-17T09:48:39.471Z,89.64
2022-12-17T09:51:24.755Z,89.35
2022-12-17T09:54:12.511Z,90.15
2022-12-17T09:57:00.858Z,90.89
2022-12-17T09:59:47.941Z,91.76
2022-12-17T10:02:42.065Z,91.01
2022-12-17T10:05:32.255Z,91.16
2022-12-17T10:08:17.936Z,90.90
2022-12-17T10:11:04.583Z,93.92
2022-12-17T10:13:49.714Z,93.59
2022-12-17T10:16:37.666Z,93.02
2022-12-17T10:19:24.167Z,94.19
2022-12-17T10:22:16.861Z,94.03
2022-12-17T10:25:03.402Z,93.57
2022-12-17T10:27:55.882Z,93.04
2022-12-17T10:30:40.875Z,94.57
2022-12-17T10:33:26.441Z,94.33
2022-12-17T10:36:11.500Z,95.79
2022-12-17T10:38:56.539Z,94.33
2022-12-17T10:41:41.687Z,94.07
2022-12-17T10:44:47.685Z,94.88
2022-12-17T10:47:43.691Z,95.06
2022-12-17T10:50:33.511Z,95.39
2022-12-17T10:53:19.303Z,95.69
2022-12-17T10:56:18.476Z,94.52
2022-12-17T10:59:08.923Z,95.40
2022-12-17T11:01:54.920Z,96.02
2022-12-17T11:04:43.183Z,96.19
2022-12-17T11:07:58.327Z,96.22
2022-12-17T11:10:47.085Z,96.46
2022-12-17T11:13:48.340Z,96.18
2022-12-17T11:16:55.770Z,96.52
2022-12-17T11:19:58.749Z,96.86
2022-12-17T11:22:46.824Z,97.31
2022-12-17T11:25:48.334Z,96.97
2022-12-17T11:28:40.789Z,96.70
2022-12-17T11:31:32.043Z,96.65
2022-12-17T11:34:24.011Z,96.80
2022-12-17T11:37:20.864Z,96.17
2022-12-17T11:40:20.243Z,96.76
2022-12-17T11:43:28.548Z,97.29
2022-12-17T11:46:24.951Z,97.07
2022-12-17T11:49:25.351Z,97.16
2022-12-17T11:52:27.434Z,96.68
2022-12-17T11:55:39.558Z,96.82
2022-12-17T11:58:38.987Z,95.82
2022-12-17T12:01:27.430Z,95.03
2022-12-17T12:04:17.526Z,94.58
2022-12-17T12:07:18.478Z,93.37
2022-12-17T12:10:16.308Z,91.93
2022-12-17T12:13:42.301Z,92.39
2022-12-17T12:16:38.081Z,91.41
2022-12-17T12:19:35.434Z,90.19
2022-12-17T12:22:32.358Z,89.93
2022-12-17T12:25:23.656Z,89.28
2022-12-17T12:28:14.322Z,87.49
2022-12-17T12:31:02.276Z,86.93
2022-12-17T12:34:19.675Z,86.70
2022-12-17T12:37:05.322Z,87.11
2022-12-17T12:39:59.005Z,86.09
2022-12-17T12:43:05.995Z,86.45
2022-12-17T12:46:11.348Z,86.17
2022-12-17T12:49:18.550Z,85.94
2022-12-17T12:52:04.381Z,84.55
2022-12-17T12:54:50.454Z,85.42
2022-12-17T12:57:55.046Z,85.73
2022-12-17T13:00:46.134Z,85.17
2022-12-17T13:03:50.605Z,85.09
2022-12-17T13:06:46.655Z,85.97
2022-12-17T13:09:16.042Z,85.31
2022-12-17T13:11:48.199Z,85.68
2022-12-17T13:14:23.850Z,85.18
2022-12-17T13:16:56.273Z,84.19
2022-12-17T13:19:31.908Z,84.94
2022-12-17T13:22:22.002Z,84.65
2022-12-17T13:24:55.277Z,83.94
2022-12-17T13:27:31.914Z,83.39
2022-12-17T13:29:59.808Z,83.49
2022-12-17T13:32:33.934Z,82.69
2022-12-17T13:35:21.724Z,83.30
2022-12-17T13:38:21.714Z,82.49
2022-12-17T13:41:11.226Z,82.07
2022-12-17T13:43:40.416Z,80.56
2022-12-17T13:46:06.862Z,81.27
2022-12-17T13:48:33.350Z,80.89
2022-12-17T13:51:02.375Z,80.70
2022-12-17T13:53:30.443Z,81.88
2022-12-17T13:55:57.976Z,81.79
2022-12-17T13:58:32.498Z,81.88
2022-12-17T14:01:06.361Z,81.89
2022-12-17T14:04:03.720Z,81.44
2022-12-17T14:06:20.043Z,81.38
2022-12-17T14:08:47.756Z,81.27
2022-12-17T14:11:32.875Z,81.86
2022-12-17T14:13:59.439Z,81.65
2022-12-17T14:16:26.048Z,81.40
2022-12-17T14:18:56.879Z,80.98
2022-12-17T14:21:25.456Z,81.78
2022-12-17T14:23:52.568Z,81.75
2022-12-17T14:26:19.245Z,81.48
2022-12-17T14:28:54.479Z,81.61
2022-12-17T14:31:28.203Z,82.26
2022-12-17T14:34:08.084Z,81.47
2022-12-17T14:36:37.297Z,81.41
2022-12-17T14:39:11.144Z,81.14
2022-12-17T14:41:57.291Z,81.52
2022-12-17T14:44:29.145Z,81.21
2022-12-17T14:47:14.494Z,81.48
2022-12-17T14:49:55.217Z,81.46
2022-12-17T14:52:44.914Z,81.73
2022-12-17T14:55:30.795Z,81.72
2022-12-17T14:58:16.986Z,81.61
2022-12-17T15:00:47.367Z,81.77
2022-12-17T15:03:23.904Z,81.91
2022-12-17T15:05:57.236Z,82.02
2022-12-17T15:08:23.781Z,81.81
2022-12-17T15:10:50.256Z,82.03
2022-12-17T15:13:16.707Z,81.65
2022-12-17T15:15:43.143Z,82.00
2022-12-17T15:18:12.586Z,82.35
2022-12-17T15:20:39.098Z,82.58
2022-12-17T15:23:05.698Z,82.53
2022-12-17T15:25:32.140Z,82.56
2022-12-17T15:27:58.566Z,82.29
2022-12-17T15:30:25.037Z,82.61
2022-12-17T15:32:51.413Z,82.77
2022-12-17T15:35:18.024Z,83.34
2022-12-17T15:37:44.458Z,83.50
2022-12-17T15:40:11.932Z,83.52
2022-12-17T15:43:00.271Z,83.68
2022-12-17T15:45:31.042Z,83.42
2022-12-17T15:47:57.848Z,83.46
2022-12-17T15:50:24.261Z,83.72
2022-12-17T15:52:50.678Z,83.84
2022-12-17T15:55:17.159Z,84.15
2022-12-17T15:57:43.856Z,84.37
2022-12-17T16:00:10.868Z,84.31
2022-12-17T16:02:37.475Z,84.47
2022-12-17T16:05:04.481Z,84.27
2022-12-17T16:07:30.997Z,84.13
2022-12-17T16:10:03.157Z,84.13
2022-12-17T16:12:31.427Z,84.64
2022-12-17T16:15:00.665Z,84.88
2022-12-17T16:17:27.329Z,84.72
2022-12-17T16:19:53.834Z,85.14
2022-12-17T16:22:20.288Z,85.00
2022-12-17T16:24:46.695Z,84.75
2022-12-17T16:27:13.936Z,84.90
2022-12-17T16:29:40.559Z,84.75
2022-12-17T16:32:07.005Z,84.83
2022-12-17T16:34:33.475Z,85.51
2022-12-17T16:37:01.413Z,84.88
2022-12-17T16:39:27.981Z,85.09
2022-12-17T16:41:54.419Z,84.77
2022-12-17T16:44:21.013Z,84.92
2022-12-17T16:46:47.501Z,85.04
2022-12-17T16:49:21.923Z,85.11
2022-12-17T16:51:50.422Z,85.50
2022-12-17T16:54:19.783Z,85.60
2022-12-17T16:56:47.081Z,85.37
2022-12-17T16:59:14.816Z,85.63
2022-12-17T17:01:44.608Z,85.71
2022-12-17T17:04:13.035Z,85.59
2022-12-17T17:06:45.508Z,85.57
2022-12-17T17:09:12.903Z,85.69
2022-12-17T17:11:39.508Z,85.24
2022-12-17T17:14:07.140Z,85.72
2022-12-17T17:16:34.375Z,85.39
2022-12-17T17:19:01.311Z,85.33
2022-12-17T17:21:31.780Z,85.26
2022-12-17T17:23:59.841Z,85.45
2022-12-17T17:26:27.653Z,85.47
2022-12-17T17:28:54.227Z,84.62
2022-12-17T17:31:21.805Z,84.62
2022-12-17T17:33:50.097Z,85.18
2022-12-17T17:36:18.312Z,85.45
2022-12-17T17:38:45.004Z,85.31
2022-12-17T17:41:13.393Z,85.10
2022-12-17T17:43:40.006Z,85.77
2022-12-17T17:46:09.415Z,86.09
2022-12-17T17:48:36.839Z,85.46
2022-12-17T17:51:12.543Z,85.72
2022-12-17T17:53:39.270Z,85.10
2022-12-17T17:56:08.586Z,85.21
2022-12-17T17:58:35.408Z,86.03
2022-12-17T18:01:08.662Z,85.74
2022-12-17T18:03:35.340Z,85.83
2022-12-17T18:06:03.356Z,85.53
2022-12-17T18:08:31.051Z,85.66
2022-12-17T18:10:59.463Z,85.91
2022-12-17T18:13:44.557Z,86.14
2022-12-17T18:16:11.707Z,85.80
2022-12-17T18:18:39.037Z,86.09
2022-12-17T18:21:08.015Z,86.16
2022-12-17T18:23:34.653Z,86.26
2022-12-17T18:26:20.733Z,86.38
2022-12-17T18:28:47.864Z,85.98
2022-12-17T18:31:23.413Z,86.42
2022-12-17T18:33:52.753Z,85.80
2022-12-17T18:36:34.383Z,86.28
2022-12-17T18:39:04.410Z,86.41
2022-12-17T18:41:49.551Z,85.84
2022-12-17T18:44:16.712Z,86.45
2022-12-17T18:46:43.332Z,85.90
2022-12-17T18:49:12.020Z,86.79
2022-12-17T18:51:40.791Z,86.15
2022-12-17T18:54:08.689Z,86.08
2022-12-17T18:57:00.469Z,86.21
2022-12-17T18:59:28.990Z,86.36
2022-12-17T19:01:56.516Z,86.42
2022-12-17T19:04:23.740Z,86.44
2022-12-17T19:06:51.628Z,86.82
2022-12-17T19:09:28.027Z,86.96
2022-12-17T19:11:55.710Z,87.54
2022-12-17T19:14:23.171Z,86.46
2022-12-17T19:16:50.967Z,87.55
2022-12-17T19:19:19.268Z,87.48
2022-12-17T19:21:45.833Z,87.83
2022-12-17T19:24:14.766Z,87.21
2022-12-17T19:26:41.662Z,87.58
2022-12-17T19:29:08.580Z,87.16
2022-12-17T19:31:35.415Z,87.82
2022-12-17T19:34:04.873Z,87.88
2022-12-17T19:36:33.374Z,87.66
2022-12-17T19:39:02.631Z,88.08
2022-12-17T19:41:29.578Z,87.65
2022-12-17T19:43:57.957Z,87.66
2022-12-17T19:46:24.933Z,87.93
2022-12-17T19:48:52.482Z,87.91
2022-12-17T19:51:21.548Z,88.22
2022-12-17T19:53:48.798Z,88.06
2022-12-17T19:56:19.678Z,87.94
2022-12-17T19:58:47.641Z,88.12
2022-12-17T20:01:16.445Z,88.39
2022-12-17T20:03:44.323Z,87.66
2022-12-17T20:06:12.634Z,87.63
2022-12-17T20:08:39.769Z,88.49
2022-12-17T20:11:27.020Z,88.53
2022-12-17T20:13:57.511Z,88.63
2022-12-17T20:16:24.219Z,89.50
2022-12-17T20:18:51.187Z,88.95
2022-12-17T20:21:18.179Z,89.13
2022-12-17T20:23:48.755Z,89.31
2022-12-17T20:26:16.159Z,88.57
2022-12-17T20:28:42.827Z,88.45
2022-12-17T20:31:09.330Z,88.44
2022-12-17T20:33:36.050Z,88.14
2022-12-17T20:36:13.805Z,88.63
2022-12-17T20:38:41.726Z,88.31
2022-12-17T20:41:17.791Z,88.20
2022-12-17T20:43:44.454Z,87.89
2022-12-17T20:46:11.333Z,88.42
2022-12-17T20:48:39.127Z,87.87
2022-12-17T20:51:23.349Z,87.97
2022-12-17T20:53:49.911Z,88.02
2022-12-17T20:56:19.422Z,87.90
2022-12-17T20:58:45.960Z,87.60
2022-12-17T21:01:18.495Z,87.69
2022-12-17T21:03:45.907Z,88.41
2022-12-17T21:06:23.507Z,88.24
2022-12-17T21:08:52.075Z,87.72
2022-12-17T21:11:22.926Z,87.70
2022-12-17T21:13:49.333Z,87.99
2022-12-17T21:16:21.472Z,87.64
2022-12-17T21:18:48.573Z,87.26
2022-12-17T21:21:18.368Z,87.30
2022-12-17T21:23:47.511Z,87.20
2022-12-17T21:26:28.278Z,87.52
2022-12-17T21:28:58.261Z,87.72
2022-12-17T21:31:32.132Z,87.68
2022-12-17T21:34:01.050Z,87.95
2022-12-17T21:36:29.771Z,88.11
2022-12-17T21:38:57.887Z,87.54
2022-12-17T21:41:29.419Z,87.87
2022-12-17T21:43:57.939Z,87.62
2022-12-17T21:46:25.909Z,87.42
2022-12-17T21:48:53.454Z,87.04
2022-12-17T21:51:20.732Z,87.16
2022-12-17T21:53:47.844Z,86.76
2022-12-17T21:56:17.120Z,87.50
2022-12-17T21:58:45.178Z,86.37
2022-12-17T22:01:18.426Z,86.79
2022-12-17T22:03:53.906Z,87.00
2022-12-17T22:06:23.903Z,86.31
2022-12-17T22:08:57.813Z,86.56
2022-12-17T22:11:27.403Z,86.71
2022-12-17T22:14:07.487Z,87.25
2022-12-17T22:16:48.115Z,86.62
2022-12-17T22:19:18.961Z,86.79
2022-12-17T22:21:49.155Z,87.04
2022-12-17T22:24:20.743Z,87.52
2022-12-17T22:26:47.684Z,86.72
2022-12-17T22:29:37.448Z,87.15
2022-12-17T22:32:24.474Z,87.58
2022-12-17T22:36:38.205Z,88.26
2022-12-17T22:40:13.453Z,87.89
2022-12-17T22:44:30.556Z,88.37
2022-12-17T22:44:40.881Z,88.27
2022-12-17T22:46:16.378Z,88.08
2022-12-17T22:48:42.788Z,87.76
2022-12-17T22:51:16.479Z,88.02
2022-12-17T22:53:48.278Z,87.85
2022-12-17T22:56:32.506Z,88.62
2022-12-17T22:59:01.743Z,87.85
2022-12-17T23:01:28.482Z,87.64
2022-12-17T23:03:56.476Z,88.05
2022-12-17T23:06:23.204Z,88.10
2022-12-17T23:08:49.780Z,88.21
2022-12-17T23:11:18.805Z,87.16
2022-12-17T23:13:45.483Z,87.82
2022-12-17T23:16:13.386Z,88.52
2022-12-17T23:18:40.973Z,87.60
2022-12-17T23:21:08.057Z,86.89
2022-12-17T23:23:34.481Z,87.30
2022-12-17T23:26:11.779Z,87.50
2022-12-17T23:28:38.146Z,87.36
2022-12-17T23:31:12.960Z,87.89
2022-12-17T23:33:40.508Z,88.38
2022-12-17T23:36:10.059Z,87.74
2022-12-17T23:38:36.905Z,88.06
2022-12-17T23:41:08.415Z,87.70
2022-12-17T23:43:35.459Z,87.78
2022-12-17T23:46:02.460Z,88.05
2022-12-17T23:48:34.269Z,87.92
2022-12-17T23:51:01.050Z,88.14
2022-12-17T23:53:28.574Z,88.25
2022-12-17T23:55:54.974Z,87.65
2022-12-17T23:58:22.009Z,87.96
